sensor_id;sensor_type;location;lat;lon;timestamp;pressure;altitude;pressure_sealevel;temperature;humidity
20394;BME280;10356;50.544;9.642;2022-11-30T00:01:13;98675.00;;;6.69;100.00
20394;BME280;10356;50.544;9.642;2022-11-30T00:03:39;98667.44;;;6.66;100.00
20394;BME280;10356;50.544;9.642;2022-11-30T00:06:08;98665.94;;;6.62;100.00
20394;BME280;10356;50.544;9.642;2022-11-30T00:08:34;98665.94;;;6.62;100.00
20394;BME280;10356;50.544;9.642;2022-11-30T00:11:06;98667.75;;;6.60;100.00
20394;BME280;10356;50.544;9.642;2022-11-30T00:13:34;98664.44;;;6.58;100.00
20394;BME280;10356;50.544;9.642;2022-11-30T00:16:01;98662.75;;;6.57;100.00
20394;BME280;10356;50.544;9.642;2022-11-30T00:18:27;98675.78;;;6.55;100.00
20394;BME280;10356;50.544;9.642;2022-11-30T00:20:54;98673.28;;;6.54;100.00
20394;BME280;10356;50.544;9.642;2022-11-30T00:23:21;98669.00;;;6.53;100.00
20394;BME280;10356;50.544;9.642;2022-11-30T00:25:47;98667.16;;;6.55;100.00
20394;BME280;10356;50.544;9.642;2022-11-30T00:28:14;98673.94;;;6.57;100.00
20394;BME280;10356;50.544;9.642;2022-11-30T00:30:42;98679.97;;;6.58;100.00
20394;BME280;10356;50.544;9.642;2022-11-30T00:33:08;98675.78;;;6.55;100.00
20394;BME280;10356;50.544;9.642;2022-11-30T00:35:35;98675.88;;;6.54;100.00
20394;BME280;10356;50.544;9.642;2022-11-30T00:38:01;98674.19;;;6.53;100.00
20394;BME280;10356;50.544;9.642;2022-11-30T00:40:28;98677.78;;;6.50;100.00
20394;BME280;10356;50.544;9.642;2022-11-30T00:42:54;98671.94;;;6.47;100.00
20394;BME280;10356;50.544;9.642;2022-11-30T00:45:21;98670.25;;;6.46;100.00
20394;BME280;10356;50.544;9.642;2022-11-30T00:47:48;98668.59;;;6.45;100.00
20394;BME280;10356;50.544;9.642;2022-11-30T00:50:15;98668.59;;;6.45;100.00
20394;BME280;10356;50.544;9.642;2022-11-30T00:52:41;98661.75;;;6.44;100.00
20394;BME280;10356;50.544;9.642;2022-11-30T00:55:08;98666.94;;;6.44;100.00
20394;BME280;10356;50.544;9.642;2022-11-30T00:57:35;98662.66;;;6.43;100.00
20394;BME280;10356;50.544;9.642;2022-11-30T01:00:02;98666.19;;;6.42;100.00
20394;BME280;10356;50.544;9.642;2022-11-30T01:02:28;98658.56;;;6.39;100.00
20394;BME280;10356;50.544;9.642;2022-11-30T01:04:56;98664.66;;;6.38;100.00
20394;BME280;10356;50.544;9.642;2022-11-30T01:07:22;98664.66;;;6.38;100.00
20394;BME280;10356;50.544;9.642;2022-11-30T01:09:49;98669.09;;;6.36;100.00
20394;BME280;10356;50.544;9.642;2022-11-30T01:12:15;98672.59;;;6.35;100.00
20394;BME280;10356;50.544;9.642;2022-11-30T01:14:42;98683.78;;;6.35;100.00
20394;BME280;10356;50.544;9.642;2022-11-30T01:17:08;98681.28;;;6.34;100.00
20394;BME280;10356;50.544;9.642;2022-11-30T01:19:35;98677.00;;;6.33;100.00
20394;BME280;10356;50.544;9.642;2022-11-30T01:22:03;98679.50;;;6.34;100.00
20394;BME280;10356;50.544;9.642;2022-11-30T01:24:29;98668.25;;;6.35;100.00
20394;BME280;10356;50.544;9.642;2022-11-30T01:26:56;98671.69;;;6.36;100.00
20394;BME280;10356;50.544;9.642;2022-11-30T01:29:22;98670.75;;;6.37;100.00
20394;BME280;10356;50.544;9.642;2022-11-30T01:31:49;98667.25;;;6.38;100.00
20394;BME280;10356;50.544;9.642;2022-11-30T01:34:15;98666.50;;;6.36;100.00
20394;BME280;10356;50.544;9.642;2022-11-30T01:36:41;98670.19;;;6.32;100.00
20394;BME280;10356;50.544;9.642;2022-11-30T01:39:10;98666.75;;;6.31;100.00
20394;BME280;10356;50.544;9.642;2022-11-30T01:41:36;98672.59;;;6.35;100.00
20394;BME280;10356;50.544;9.642;2022-11-30T01:47:09;98669.75;;;6.39;100.00
20394;BME280;10356;50.544;9.642;2022-11-30T01:49:38;98673.19;;;6.40;100.00
20394;BME280;10356;50.544;9.642;2022-11-30T01:52:08;98677.44;;;6.41;100.00
20394;BME280;10356;50.544;9.642;2022-11-30T01:54:41;98682.59;;;6.41;100.00
20394;BME280;10356;50.544;9.642;2022-11-30T01:57:13;98679.13;;;6.42;100.00
20394;BME280;10356;50.544;9.642;2022-11-30T01:59:41;98670.41;;;6.43;100.00
20394;BME280;10356;50.544;9.642;2022-11-30T02:02:07;98672.09;;;6.44;100.00
20394;BME280;10356;50.544;9.642;2022-11-30T02:04:35;98670.25;;;6.46;100.00
20394;BME280;10356;50.544;9.642;2022-11-30T02:07:05;98674.50;;;6.47;100.00
20394;BME280;10356;50.544;9.642;2022-11-30T02:09:37;98678.94;;;6.45;100.00
20394;BME280;10356;50.544;9.642;2022-11-30T02:12:07;98676.34;;;6.45;100.00
20394;BME280;10356;50.544;9.642;2022-11-30T02:14:41;98684.13;;;6.45;100.00
20394;BME280;10356;50.544;9.642;2022-11-30T02:17:18;98679.69;;;6.47;100.00
20394;BME280;10356;50.544;9.642;2022-11-30T02:20:08;98679.63;;;6.48;100.00
20394;BME280;10356;50.544;9.642;2022-11-30T02:22:54;98682.13;;;6.50;100.00
20394;BME280;10356;50.544;9.642;2022-11-30T02:25:27;98679.53;;;6.50;100.00
20394;BME280;10356;50.544;9.642;2022-11-30T02:28:20;98682.88;;;6.52;100.00
20394;BME280;10356;50.544;9.642;2022-11-30T02:30:52;98680.28;;;6.52;100.00
20394;BME280;10356;50.544;9.642;2022-11-30T02:33:24;98679.34;;;6.53;100.00
20394;BME280;10356;50.544;9.642;2022-11-30T02:35:53;98670.84;;;6.51;100.00
20394;BME280;10356;50.544;9.642;2022-11-30T02:38:22;98677.69;;;6.52;100.00
20394;BME280;10356;50.544;9.642;2022-11-30T02:40:49;98675.13;;;6.52;100.00
20394;BME280;10356;50.544;9.642;2022-11-30T02:43:16;98676.75;;;6.53;100.00
20394;BME280;10356;50.544;9.642;2022-11-30T02:45:49;98679.34;;;6.53;100.00
20394;BME280;10356;50.544;9.642;2022-11-30T02:48:24;98668.09;;;6.54;100.00
20394;BME280;10356;50.544;9.642;2022-11-30T02:50:56;98679.34;;;6.53;100.00
20394;BME280;10356;50.544;9.642;2022-11-30T02:53:24;98678.47;;;6.54;100.00
20394;BME280;10356;50.544;9.642;2022-11-30T02:55:52;98686.22;;;6.54;100.00
20394;BME280;10356;50.544;9.642;2022-11-30T02:58:19;98680.09;;;6.55;100.00
20394;BME280;10356;50.544;9.642;2022-11-30T03:00:46;98683.63;;;6.54;100.00
20394;BME280;10356;50.544;9.642;2022-11-30T03:03:12;98669.75;;;6.55;100.00
20394;BME280;10356;50.544;9.642;2022-11-30T03:05:40;98675.03;;;6.53;100.00
20394;BME280;10356;50.544;9.642;2022-11-30T03:08:07;98669.75;;;6.55;100.00
20394;BME280;10356;50.544;9.642;2022-11-30T03:10:33;98680.94;;;6.55;100.00
20394;BME280;10356;50.544;9.642;2022-11-30T03:13:00;98680.09;;;6.55;100.00
20394;BME280;10356;50.544;9.642;2022-11-30T03:15:26;98691.16;;;6.58;100.00
20394;BME280;10356;50.544;9.642;2022-11-30T03:17:53;98685.13;;;6.58;100.00
20394;BME280;10356;50.544;9.642;2022-11-30T03:20:19;98687.88;;;6.55;100.00
20394;BME280;10356;50.544;9.642;2022-11-30T03:22:47;98688.72;;;6.55;100.00
20394;BME280;10356;50.544;9.642;2022-11-30T03:25:14;98701.66;;;6.55;100.00
20394;BME280;10356;50.544;9.642;2022-11-30T03:27:40;98696.47;;;6.55;100.00
20394;BME280;10356;50.544;9.642;2022-11-30T03:30:08;98705.00;;;6.57;100.00
20394;BME280;10356;50.544;9.642;2022-11-30T03:32:34;98698.97;;;6.57;100.00
20394;BME280;10356;50.544;9.642;2022-11-30T03:35:01;98703.34;;;6.56;100.00
20394;BME280;10356;50.544;9.642;2022-11-30T03:37:27;98699.91;;;6.56;100.00
20394;BME280;10356;50.544;9.642;2022-11-30T03:39:55;98703.34;;;6.56;100.00
20394;BME280;10356;50.544;9.642;2022-11-30T03:42:21;98708.53;;;6.56;100.00
20394;BME280;10356;50.544;9.642;2022-11-30T03:44:48;98702.50;;;6.56;100.00
20394;BME280;10356;50.544;9.642;2022-11-30T03:47:14;98707.69;;;6.56;100.00
20394;BME280;10356;50.544;9.642;2022-11-30T03:49:41;98697.31;;;6.56;100.00
20394;BME280;10356;50.544;9.642;2022-11-30T03:52:07;98704.16;;;6.57;100.00
20394;BME280;10356;50.544;9.642;2022-11-30T03:54:33;98700.66;;;6.58;100.00
20394;BME280;10356;50.544;9.642;2022-11-30T03:57:01;98716.19;;;6.58;100.00
20394;BME280;10356;50.544;9.642;2022-11-30T03:59:28;98713.59;;;6.58;100.00
20394;BME280;10356;50.544;9.642;2022-11-30T04:01:54;98710.03;;;6.60;100.00
20394;BME280;10356;50.544;9.642;2022-11-30T04:04:21;98710.84;;;6.61;100.00
20394;BME280;10356;50.544;9.642;2022-11-30T04:06:47;98716.00;;;6.61;100.00
20394;BME280;10356;50.544;9.642;2022-11-30T04:09:13;98714.19;;;6.63;100.00
20394;BME280;10356;50.544;9.642;2022-11-30T04:11:40;98707.34;;;6.62;100.00
20394;BME280;10356;50.544;9.642;2022-11-30T04:14:08;98718.53;;;6.62;100.00
20394;BME280;10356;50.544;9.642;2022-11-30T04:16:34;98717.72;;;6.62;100.00
20394;BME280;10356;50.544;9.642;2022-11-30T04:19:01;98708.25;;;6.61;100.00
20394;BME280;10356;50.544;9.642;2022-11-30T04:21:27;98715.22;;;6.60;100.00
20394;BME280;10356;50.544;9.642;2022-11-30T04:23:54;98716.19;;;6.58;100.00
20394;BME280;10356;50.544;9.642;2022-11-30T04:26:20;98714.47;;;6.58;100.00
20394;BME280;10356;50.544;9.642;2022-11-30T04:28:47;98712.69;;;6.59;100.00
20394;BME280;10356;50.544;9.642;2022-11-30T04:31:15;98713.53;;;6.59;100.00
20394;BME280;10356;50.544;9.642;2022-11-30T04:33:42;98711.78;;;6.60;100.00
20394;BME280;10356;50.544;9.642;2022-11-30T04:36:15;98710.03;;;6.60;100.00
20394;BME280;10356;50.544;9.642;2022-11-30T04:38:42;98716.94;;;6.60;100.00
20394;BME280;10356;50.544;9.642;2022-11-30T04:41:09;98717.03;;;6.58;100.00
20394;BME280;10356;50.544;9.642;2022-11-30T04:43:36;98716.09;;;6.59;100.00
20394;BME280;10356;50.544;9.642;2022-11-30T04:46:02;98714.38;;;6.60;100.00
20394;BME280;10356;50.544;9.642;2022-11-30T04:48:30;98717.72;;;6.62;100.00
20394;BME280;10356;50.544;9.642;2022-11-30T04:50:59;98716.00;;;6.61;100.00
20394;BME280;10356;50.544;9.642;2022-11-30T04:53:26;98715.13;;;6.62;100.00
20394;BME280;10356;50.544;9.642;2022-11-30T04:55:53;98713.53;;;6.59;100.00
20394;BME280;10356;50.544;9.642;2022-11-30T04:58:19;98715.97;;;6.62;100.00
20394;BME280;10356;50.544;9.642;2022-11-30T05:00:46;98711.69;;;6.61;100.00
20394;BME280;10356;50.544;9.642;2022-11-30T05:03:12;98714.38;;;6.60;100.00
20394;BME280;10356;50.544;9.642;2022-11-30T05:05:40;98711.78;;;6.60;100.00
20394;BME280;10356;50.544;9.642;2022-11-30T05:08:07;98714.38;;;6.60;100.00
20394;BME280;10356;50.544;9.642;2022-11-30T05:10:34;98710.84;;;6.61;100.00
20394;BME280;10356;50.544;9.642;2022-11-30T05:13:00;98714.38;;;6.60;100.00
20394;BME280;10356;50.544;9.642;2022-11-30T05:15:27;98717.78;;;6.60;100.00
20394;BME280;10356;50.544;9.642;2022-11-30T05:17:57;98707.50;;;6.59;100.00
20394;BME280;10356;50.544;9.642;2022-11-30T05:20:24;98721.28;;;6.59;100.00
20394;BME280;10356;50.544;9.642;2022-11-30T05:22:51;98720.38;;;6.60;100.00
20394;BME280;10356;50.544;9.642;2022-11-30T05:25:18;98716.19;;;6.58;100.00
20394;BME280;10356;50.544;9.642;2022-11-30T05:27:44;98727.47;;;6.57;100.00
20394;BME280;10356;50.544;9.642;2022-11-30T05:30:13;98728.22;;;6.59;100.00
20394;BME280;10356;50.544;9.642;2022-11-30T05:32:39;98728.22;;;6.59;100.00
20394;BME280;10356;50.544;9.642;2022-11-30T05:35:07;98729.91;;;6.60;100.00
20394;BME280;10356;50.544;9.642;2022-11-30T05:37:33;98738.09;;;6.52;100.00
20394;BME280;10356;50.544;9.642;2022-11-30T05:40:01;98742.56;;;6.49;100.00
20394;BME280;10356;50.544;9.642;2022-11-30T05:42:27;98740.72;;;6.51;100.00
20394;BME280;10356;50.544;9.642;2022-11-30T05:44:54;98736.31;;;6.53;100.00
20394;BME280;10356;50.544;9.642;2022-11-30T05:47:20;98737.06;;;6.55;100.00
20394;BME280;10356;50.544;9.642;2022-11-30T05:49:47;98743.91;;;6.56;100.00
20394;BME280;10356;50.544;9.642;2022-11-30T05:52:13;98742.19;;;6.56;100.00
20394;BME280;10356;50.544;9.642;2022-11-30T05:54:40;98743.09;;;6.55;100.00
20394;BME280;10356;50.544;9.642;2022-11-30T05:57:08;98745.56;;;6.57;100.00
20394;BME280;10356;50.544;9.642;2022-11-30T05:59:34;98738.75;;;6.56;100.00
20394;BME280;10356;50.544;9.642;2022-11-30T06:02:00;98745.56;;;6.57;100.00
20394;BME280;10356;50.544;9.642;2022-11-30T06:04:27;98751.59;;;6.57;100.00
20394;BME280;10356;50.544;9.642;2022-11-30T06:06:53;98749.84;;;6.58;100.00
20394;BME280;10356;50.544;9.642;2022-11-30T06:09:20;98744.75;;;6.56;100.00
20394;BME280;10356;50.544;9.642;2022-11-30T06:11:47;98752.59;;;6.55;100.00
20394;BME280;10356;50.544;9.642;2022-11-30T06:14:15;98757.63;;;6.58;100.00
20394;BME280;10356;50.544;9.642;2022-11-30T06:16:41;98755.94;;;6.57;100.00
20394;BME280;10356;50.544;9.642;2022-11-30T06:19:07;98754.28;;;6.56;100.00
20394;BME280;10356;50.544;9.642;2022-11-30T06:21:34;98756.78;;;6.57;100.00
20394;BME280;10356;50.544;9.642;2022-11-30T06:24:00;98749.09;;;6.56;100.00
20394;BME280;10356;50.544;9.642;2022-11-30T06:26:27;98753.44;;;6.55;100.00
20394;BME280;10356;50.544;9.642;2022-11-30T06:28:53;98747.41;;;6.55;100.00
20394;BME280;10356;50.544;9.642;2022-11-30T06:31:21;98753.53;;;6.54;100.00
20394;BME280;10356;50.544;9.642;2022-11-30T06:33:48;98754.44;;;6.53;100.00
20394;BME280;10356;50.544;9.642;2022-11-30T06:36:19;98752.59;;;6.55;100.00
20394;BME280;10356;50.544;9.642;2022-11-30T06:38:45;98758.78;;;6.52;100.00
20394;BME280;10356;50.544;9.642;2022-11-30T06:41:12;98759.59;;;6.53;100.00
20394;BME280;10356;50.544;9.642;2022-11-30T06:43:39;98757.94;;;6.52;100.00
20394;BME280;10356;50.544;9.642;2022-11-30T06:46:06;98763.13;;;6.52;100.00
20394;BME280;10356;50.544;9.642;2022-11-30T06:48:34;98756.34;;;6.49;100.00
20394;BME280;10356;50.544;9.642;2022-11-30T06:51:03;98763.28;;;6.49;100.00
20394;BME280;10356;50.544;9.642;2022-11-30T06:53:30;98765.81;;;6.50;100.00
20394;BME280;10356;50.544;9.642;2022-11-30T06:55:57;98761.44;;;6.51;100.00
20394;BME280;10356;50.544;9.642;2022-11-30T06:58:23;98761.44;;;6.51;100.00
20394;BME280;10356;50.544;9.642;2022-11-30T07:00:50;98769.19;;;6.51;100.00
20394;BME280;10356;50.544;9.642;2022-11-30T07:03:16;98767.53;;;6.50;100.00
20394;BME280;10356;50.544;9.642;2022-11-30T07:05:45;98764.97;;;6.50;100.00
20394;BME280;10356;50.544;9.642;2022-11-30T07:08:13;98769.19;;;6.51;100.00
20394;BME280;10356;50.544;9.642;2022-11-30T07:10:41;98773.47;;;6.52;100.00
20394;BME280;10356;50.544;9.642;2022-11-30T07:13:12;98773.47;;;6.52;100.00
20394;BME280;10356;50.544;9.642;2022-11-30T07:15:39;98769.97;;;6.53;100.00
20394;BME280;10356;50.544;9.642;2022-11-30T07:18:06;98764.78;;;6.53;100.00
20394;BME280;10356;50.544;9.642;2022-11-30T07:20:32;98762.94;;;6.55;100.00
20394;BME280;10356;50.544;9.642;2022-11-30T07:23:00;98766.28;;;6.57;100.00
20394;BME280;10356;50.544;9.642;2022-11-30T07:25:48;98767.97;;;6.58;100.00
20394;BME280;10356;50.544;9.642;2022-11-30T07:28:34;98765.28;;;6.59;100.00
20394;BME280;10356;50.544;9.642;2022-11-30T07:31:02;98775.50;;;6.62;100.00
20394;BME280;10356;50.544;9.642;2022-11-30T07:33:37;98773.59;;;6.66;100.00
20394;BME280;10356;50.544;9.642;2022-11-30T07:36:04;98773.50;;;6.67;100.00
20394;BME280;10356;50.544;9.642;2022-11-30T07:38:32;98780.28;;;6.70;100.00
20394;BME280;10356;50.544;9.642;2022-11-30T07:40:58;98780.19;;;6.71;100.00
20394;BME280;10356;50.544;9.642;2022-11-30T07:43:26;98778.53;;;6.70;100.00
20394;BME280;10356;50.544;9.642;2022-11-30T07:45:53;98776.16;;;6.66;100.00
20394;BME280;10356;50.544;9.642;2022-11-30T07:48:20;98778.44;;;6.72;100.00
20394;BME280;10356;50.544;9.642;2022-11-30T07:50:47;98777.69;;;6.70;100.00
20394;BME280;10356;50.544;9.642;2022-11-30T07:53:14;98783.94;;;6.66;100.00
20394;BME280;10356;50.544;9.642;2022-11-30T07:55:43;98798.41;;;6.70;100.00
20394;BME280;10356;50.544;9.642;2022-11-30T07:58:10;98792.22;;;6.72;100.00
20394;BME280;10356;50.544;9.642;2022-11-30T08:00:37;98788.69;;;6.73;100.00
20394;BME280;10356;50.544;9.642;2022-11-30T08:03:04;98797.06;;;6.78;100.00
20394;BME280;10356;50.544;9.642;2022-11-30T08:05:30;98796.16;;;6.79;100.00
20394;BME280;10356;50.544;9.642;2022-11-30T08:07:57;98793.31;;;6.84;100.00
20394;BME280;10356;50.544;9.642;2022-11-30T08:10:23;98789.72;;;6.87;100.00
20394;BME280;10356;50.544;9.642;2022-11-30T08:12:51;98790.41;;;6.90;100.00
20394;BME280;10356;50.544;9.642;2022-11-30T08:15:18;98789.41;;;6.93;100.00
20394;BME280;10356;50.544;9.642;2022-11-30T08:17:45;98784.03;;;6.96;100.00
20394;BME280;10356;50.544;9.642;2022-11-30T08:20:14;98792.75;;;6.95;100.00
20394;BME280;10356;50.544;9.642;2022-11-30T08:22:41;98793.50;;;6.97;100.00
20394;BME280;10356;50.544;9.642;2022-11-30T08:25:08;98797.09;;;6.94;100.00
20394;BME280;10356;50.544;9.642;2022-11-30T08:27:34;98794.16;;;7.00;100.00
20394;BME280;10356;50.544;9.642;2022-11-30T08:30:03;98793.06;;;7.04;100.00
20394;BME280;10356;50.544;9.642;2022-11-30T08:32:30;98787.56;;;6.95;100.00
20394;BME280;10356;50.544;9.642;2022-11-30T08:34:56;98791.72;;;6.97;100.00
20394;BME280;10356;50.544;9.642;2022-11-30T08:37:23;98785.97;;;7.08;100.00
20394;BME280;10356;50.544;9.642;2022-11-30T08:39:49;98790.72;;;7.15;100.00
20394;BME280;10356;50.544;9.642;2022-11-30T08:42:16;98787.03;;;7.35;100.00
20394;BME280;10356;50.544;9.642;2022-11-30T08:44:42;98785.09;;;7.38;100.00
20394;BME280;10356;50.544;9.642;2022-11-30T08:47:10;98783.25;;;7.40;100.00
20394;BME280;10356;50.544;9.642;2022-11-30T08:49:36;98788.66;;;7.51;100.00
20394;BME280;10356;50.544;9.642;2022-11-30T08:52:03;98788.31;;;7.57;100.00
20394;BME280;10356;50.544;9.642;2022-11-30T08:54:30;98796.69;;;7.62;100.00
20394;BME280;10356;50.544;9.642;2022-11-30T08:56:56;98793.56;;;7.72;100.00
20394;BME280;10356;50.544;9.642;2022-11-30T08:59:23;98799.16;;;7.80;100.00
20394;BME280;10356;50.544;9.642;2022-11-30T09:01:49;98800.19;;;7.77;100.00
20394;BME280;10356;50.544;9.642;2022-11-30T09:04:17;98805.41;;;7.91;100.00
20394;BME280;10356;50.544;9.642;2022-11-30T09:06:44;98795.56;;;7.96;100.00
20394;BME280;10356;50.544;9.642;2022-11-30T09:09:10;98796.41;;;7.97;100.00
20394;BME280;10356;50.544;9.642;2022-11-30T09:11:37;98799.00;;;7.97;100.00
20394;BME280;10356;50.544;9.642;2022-11-30T09:14:04;98812.63;;;8.00;100.00
20394;BME280;10356;50.544;9.642;2022-11-30T09:16:33;98806.78;;;7.97;100.00
20394;BME280;10356;50.544;9.642;2022-11-30T09:19:00;98806.91;;;7.95;100.00
20394;BME280;10356;50.544;9.642;2022-11-30T09:21:28;98805.16;;;7.96;100.00
20394;BME280;10356;50.544;9.642;2022-11-30T09:23:55;98815.53;;;7.96;100.00
20394;BME280;10356;50.544;9.642;2022-11-30T09:26:22;98814.03;;;7.92;100.00
20394;BME280;10356;50.544;9.642;2022-11-30T09:28:50;98822.38;;;7.97;100.00
20394;BME280;10356;50.544;9.642;2022-11-30T09:31:19;98823.97;;;7.99;100.00
20394;BME280;10356;50.544;9.642;2022-11-30T09:33:46;98817.03;;;8.00;100.00
20394;BME280;10356;50.544;9.642;2022-11-30T09:36:14;98822.38;;;7.97;100.00
20394;BME280;10356;50.544;9.642;2022-11-30T09:38:43;98824.06;;;7.98;100.00
20394;BME280;10356;50.544;9.642;2022-11-30T09:44:17;98829.16;;;7.99;100.00
20394;BME280;10356;50.544;9.642;2022-11-30T09:46:53;98822.56;;;7.94;100.00
20394;BME280;10356;50.544;9.642;2022-11-30T09:49:24;98824.06;;;7.82;100.00
20394;BME280;10356;50.544;9.642;2022-11-30T09:51:54;98828.59;;;7.79;100.00
20394;BME280;10356;50.544;9.642;2022-11-30T09:54:27;98835.84;;;7.74;100.00
20394;BME280;10356;50.544;9.642;2022-11-30T09:57:03;98830.97;;;7.68;100.00
20394;BME280;10356;50.544;9.642;2022-11-30T09:59:36;98823.31;;;7.50;100.00
20394;BME280;10356;50.544;9.642;2022-11-30T10:02:12;98822.38;;;7.51;100.00
20394;BME280;10356;50.544;9.642;2022-11-30T10:04:41;98827.84;;;7.47;100.00
20394;BME280;10356;50.544;9.642;2022-11-30T10:07:19;98828.16;;;7.56;100.00
20394;BME280;10356;50.544;9.642;2022-11-30T10:09:57;98825.22;;;7.62;100.00
20394;BME280;10356;50.544;9.642;2022-11-30T10:12:32;98826.88;;;7.63;100.00
20394;BME280;10356;50.544;9.642;2022-11-30T10:15:10;98833.91;;;7.61;100.00
20394;BME280;10356;50.544;9.642;2022-11-30T10:17:45;98834.66;;;7.63;100.00
20394;BME280;10356;50.544;9.642;2022-11-30T10:20:43;98829.97;;;7.70;100.00
20394;BME280;10356;50.544;9.642;2022-11-30T10:23:21;98821.94;;;7.75;100.00
20394;BME280;10356;50.544;9.642;2022-11-30T10:25:54;98830.66;;;7.74;100.00
20394;BME280;10356;50.544;9.642;2022-11-30T10:28:30;98825.47;;;7.74;100.00
20394;BME280;10356;50.544;9.642;2022-11-30T10:31:01;98832.47;;;7.72;100.00
20394;BME280;10356;50.544;9.642;2022-11-30T10:33:31;98821.75;;;7.78;100.00
20394;BME280;10356;50.544;9.642;2022-11-30T10:36:07;98824.25;;;7.79;100.00
20394;BME280;10356;50.544;9.642;2022-11-30T10:38:38;98824.56;;;7.89;100.00
20394;BME280;10356;50.544;9.642;2022-11-30T10:41:12;98825.97;;;7.94;100.00
20394;BME280;10356;50.544;9.642;2022-11-30T10:43:44;98824.06;;;7.98;100.00
20394;BME280;10356;50.544;9.642;2022-11-30T10:46:19;98819.50;;;8.01;100.00
20394;BME280;10356;50.544;9.642;2022-11-30T10:48:50;98822.47;;;7.95;100.00
20394;BME280;10356;50.544;9.642;2022-11-30T10:51:19;98818.78;;;7.99;100.00
20394;BME280;10356;50.544;9.642;2022-11-30T10:53:45;98822.00;;;8.03;100.00
20394;BME280;10356;50.544;9.642;2022-11-30T10:56:14;98814.22;;;8.03;100.00
20394;BME280;10356;50.544;9.642;2022-11-30T10:58:46;98820.72;;;7.96;100.00
20394;BME280;10356;50.544;9.642;2022-11-30T11:01:29;98825.53;;;8.02;100.00
20394;BME280;10356;50.544;9.642;2022-11-30T11:04:06;98825.53;;;8.02;100.00
20394;BME280;10356;50.544;9.642;2022-11-30T11:06:33;98826.56;;;7.99;100.00
20394;BME280;10356;50.544;9.642;2022-11-30T11:09:22;98824.13;;;7.96;100.00
20394;BME280;10356;50.544;9.642;2022-11-30T11:11:54;98831.59;;;7.87;100.00
20394;BME280;10356;50.544;9.642;2022-11-30T11:14:23;98823.38;;;7.94;100.00
20394;BME280;10356;50.544;9.642;2022-11-30T11:16:54;98823.38;;;7.94;100.00
20394;BME280;10356;50.544;9.642;2022-11-30T11:19:24;98829.75;;;7.89;100.00
20394;BME280;10356;50.544;9.642;2022-11-30T11:21:51;98824.41;;;7.92;100.00
20394;BME280;10356;50.544;9.642;2022-11-30T11:24:18;98819.13;;;7.93;100.00
20394;BME280;10356;50.544;9.642;2022-11-30T11:26:48;98813.56;;;7.99;100.00
20394;BME280;10356;50.544;9.642;2022-11-30T11:29:23;98815.16;;;8.02;100.00
20394;BME280;10356;50.544;9.642;2022-11-30T11:32:06;98809.78;;;8.05;100.00
20394;BME280;10356;50.544;9.642;2022-11-30T11:34:35;98813.13;;;8.07;100.00
20394;BME280;10356;50.544;9.642;2022-11-30T11:37:06;98808.59;;;8.10;100.00
20394;BME280;10356;50.544;9.642;2022-11-30T11:39:39;98809.44;;;8.11;100.00
20394;BME280;10356;50.544;9.642;2022-11-30T11:42:12;98801.00;;;8.21;100.00
20394;BME280;10356;50.544;9.642;2022-11-30T11:44:42;98802.59;;;8.24;100.00
20394;BME280;10356;50.544;9.642;2022-11-30T11:47:22;98803.72;;;8.20;100.00
20394;BME280;10356;50.544;9.642;2022-11-30T11:49:49;98801.13;;;8.20;100.00
20394;BME280;10356;50.544;9.642;2022-11-30T11:52:16;98803.50;;;8.23;100.00
20394;BME280;10356;50.544;9.642;2022-11-30T11:54:46;98805.19;;;8.24;100.00
20394;BME280;10356;50.544;9.642;2022-11-30T11:57:16;98807.53;;;8.28;100.00
20394;BME280;10356;50.544;9.642;2022-11-30T11:59:49;98794.97;;;8.21;100.00
20394;BME280;10356;50.544;9.642;2022-11-30T12:02:26;98803.50;;;8.23;100.00
20394;BME280;10356;50.544;9.642;2022-11-30T12:05:02;98808.56;;;8.26;100.00
20394;BME280;10356;50.544;9.642;2022-11-30T12:07:35;98797.06;;;8.30;100.00
20394;BME280;10356;50.544;9.642;2022-11-30T12:10:20;98803.19;;;8.29;100.00
20394;BME280;10356;50.544;9.642;2022-11-30T12:12:50;98802.03;;;8.19;100.00
20394;BME280;10356;50.544;9.642;2022-11-30T12:15:17;98799.25;;;8.22;100.00
20394;BME280;10356;50.544;9.642;2022-11-30T12:17:54;98797.25;;;8.27;100.00
20394;BME280;10356;50.544;9.642;2022-11-30T12:20:25;98803.19;;;8.29;100.00
20394;BME280;10356;50.544;9.642;2022-11-30T12:23:11;98807.25;;;8.33;100.00
20394;BME280;10356;50.544;9.642;2022-11-30T12:25:45;98804.88;;;8.30;100.00
20394;BME280;10356;50.544;9.642;2022-11-30T12:28:19;98799.47;;;8.33;100.00
20394;BME280;10356;50.544;9.642;2022-11-30T12:31:01;98808.94;;;8.34;100.00
20394;BME280;10356;50.544;9.642;2022-11-30T12:33:47;98814.88;;;8.36;100.00
20394;BME280;10356;50.544;9.642;2022-11-30T12:36:19;98818.22;;;8.38;100.00
20394;BME280;10356;50.544;9.642;2022-11-30T12:38:56;98815.91;;;8.33;100.00
20394;BME280;10356;50.544;9.642;2022-11-30T12:41:30;98813.41;;;8.32;100.00
20394;BME280;10356;50.544;9.642;2022-11-30T12:44:09;98816.91;;;8.31;100.00
20394;BME280;10356;50.544;9.642;2022-11-30T12:46:46;98816.25;;;8.27;100.00
20394;BME280;10356;50.544;9.642;2022-11-30T12:49:26;98815.41;;;8.27;100.00
20394;BME280;10356;50.544;9.642;2022-11-30T12:52:02;98808.84;;;8.35;100.00
20394;BME280;10356;50.544;9.642;2022-11-30T12:54:36;98806.72;;;8.28;100.00
20394;BME280;10356;50.544;9.642;2022-11-30T12:57:13;98813.66;;;8.27;100.00
20394;BME280;10356;50.544;9.642;2022-11-30T12:59:46;98813.75;;;8.26;100.00
20394;BME280;10356;50.544;9.642;2022-11-30T13:05:21;98819.94;;;8.23;100.00
20394;BME280;10356;50.544;9.642;2022-11-30T13:07:52;98812.06;;;8.25;100.00
20394;BME280;10356;50.544;9.642;2022-11-30T13:10:27;98804.53;;;8.20;100.00
20394;BME280;10356;50.544;9.642;2022-11-30T13:12:59;98811.84;;;8.14;100.00
20394;BME280;10356;50.544;9.642;2022-11-30T13:15:29;98809.91;;;8.17;100.00
20394;BME280;10356;50.544;9.642;2022-11-30T13:17:59;98808.69;;;8.23;100.00
20394;BME280;10356;50.544;9.642;2022-11-30T13:20:32;98805.25;;;8.22;100.00